sensor_id;sensor_type;location;lat;lon;timestamp;temperature;humidity
66670;DHT22;53568;52.164;4.472;2023-05-07T00:00:37;17.63;76.14
66670;DHT22;53568;52.164;4.472;2023-05-07T00:03:03;17.63;76.19
66670;DHT22;53568;52.164;4.472;2023-05-07T00:05:28;17.55;76.38
66670;DHT22;53568;52.164;4.472;2023-05-07T00:07:53;17.48;76.75
66670;DHT22;53568;52.164;4.472;2023-05-07T00:10:19;17.46;76.86
66670;DHT22;53568;52.164;4.472;2023-05-07T00:12:45;17.46;77.00
66670;DHT22;53568;52.164;4.472;2023-05-07T00:15:10;17.48;77.00
66670;DHT22;53568;52.164;4.472;2023-05-07T00:17:36;17.54;76.91
66670;DHT22;53568;52.164;4.472;2023-05-07T00:20:03;17.57;76.88
66670;DHT22;53568;52.164;4.472;2023-05-07T00:22:31;17.64;76.84
66670;DHT22;53568;52.164;4.472;2023-05-07T00:24:58;17.70;76.64
66670;DHT22;53568;52.164;4.472;2023-05-07T00:27:23;17.71;76.40
66670;DHT22;53568;52.164;4.472;2023-05-07T00:29:49;17.64;76.51
66670;DHT22;53568;52.164;4.472;2023-05-07T00:32:15;17.61;76.69
66670;DHT22;53568;52.164;4.472;2023-05-07T00:34:41;17.61;76.85
66670;DHT22;53568;52.164;4.472;2023-05-07T00:37:06;17.61;76.91
66670;DHT22;53568;52.164;4.472;2023-05-07T00:39:35;17.66;76.75
66670;DHT22;53568;52.164;4.472;2023-05-07T00:42:01;17.67;76.74
66670;DHT22;53568;52.164;4.472;2023-05-07T00:44:28;17.71;76.67
66670;DHT22;53568;52.164;4.472;2023-05-07T00:46:56;17.74;76.35
66670;DHT22;53568;52.164;4.472;2023-05-07T00:49:26;17.64;76.50
66670;DHT22;53568;52.164;4.472;2023-05-07T00:51:56;17.58;76.69
66670;DHT22;53568;52.164;4.472;2023-05-07T00:54:21;17.55;76.70
66670;DHT22;53568;52.164;4.472;2023-05-07T00:56:47;17.58;76.91
66670;DHT22;53568;52.164;4.472;2023-05-07T00:59:13;17.61;76.78
66670;DHT22;53568;52.164;4.472;2023-05-07T01:01:38;17.64;76.72
66670;DHT22;53568;52.164;4.472;2023-05-07T01:04:04;17.67;76.78
66670;DHT22;53568;52.164;4.472;2023-05-07T01:06:32;17.70;76.57
66670;DHT22;53568;52.164;4.472;2023-05-07T01:08:59;17.74;76.34
66670;DHT22;53568;52.164;4.472;2023-05-07T01:11:25;17.71;76.24
66670;DHT22;53568;52.164;4.472;2023-05-07T01:13:52;17.67;76.26
66670;DHT22;53568;52.164;4.472;2023-05-07T01:16:18;17.66;76.57
66670;DHT22;53568;52.164;4.472;2023-05-07T01:18:43;17.67;76.54
66670;DHT22;53568;52.164;4.472;2023-05-07T01:21:11;17.67;76.23
66670;DHT22;53568;52.164;4.472;2023-05-07T01:23:37;17.70;76.24
66670;DHT22;53568;52.164;4.472;2023-05-07T01:26:03;17.74;76.17
66670;DHT22;53568;52.164;4.472;2023-05-07T01:28:29;17.78;75.80
66670;DHT22;53568;52.164;4.472;2023-05-07T01:31:00;17.80;75.69
66670;DHT22;53568;52.164;4.472;2023-05-07T01:33:32;17.75;75.61
66670;DHT22;53568;52.164;4.472;2023-05-07T01:35:59;17.63;75.90
66670;DHT22;53568;52.164;4.472;2023-05-07T01:38:29;17.64;76.11
66670;DHT22;53568;52.164;4.472;2023-05-07T01:40:56;17.58;75.95
66670;DHT22;53568;52.164;4.472;2023-05-07T01:43:23;17.54;75.99
66670;DHT22;53568;52.164;4.472;2023-05-07T01:45:49;17.51;76.23
66670;DHT22;53568;52.164;4.472;2023-05-07T01:48:15;17.51;76.02
66670;DHT22;53568;52.164;4.472;2023-05-07T01:50:44;17.48;75.88
66670;DHT22;53568;52.164;4.472;2023-05-07T01:53:10;17.43;76.22
66670;DHT22;53568;52.164;4.472;2023-05-07T01:55:36;17.41;75.94
66670;DHT22;53568;52.164;4.472;2023-05-07T01:58:02;17.38;75.98
66670;DHT22;53568;52.164;4.472;2023-05-07T02:00:28;17.31;76.15
66670;DHT22;53568;52.164;4.472;2023-05-07T02:02:54;17.34;76.19
66670;DHT22;53568;52.164;4.472;2023-05-07T02:05:20;17.33;75.85
66670;DHT22;53568;52.164;4.472;2023-05-07T02:07:46;17.28;76.17
66670;DHT22;53568;52.164;4.472;2023-05-07T02:10:11;17.31;76.16
66670;DHT22;53568;52.164;4.472;2023-05-07T02:12:37;17.36;75.68
66670;DHT22;53568;52.164;4.472;2023-05-07T02:15:02;17.37;75.46
66670;DHT22;53568;52.164;4.472;2023-05-07T02:17:28;17.34;75.58
66670;DHT22;53568;52.164;4.472;2023-05-07T02:19:57;17.37;75.66
66670;DHT22;53568;52.164;4.472;2023-05-07T02:22:22;17.38;75.39
66670;DHT22;53568;52.164;4.472;2023-05-07T02:24:48;17.41;75.38
66670;DHT22;53568;52.164;4.472;2023-05-07T02:27:14;17.41;75.46
66670;DHT22;53568;52.164;4.472;2023-05-07T02:29:39;17.40;75.57
66670;DHT22;53568;52.164;4.472;2023-05-07T02:32:05;17.41;75.58
66670;DHT22;53568;52.164;4.472;2023-05-07T02:34:31;17.38;75.55
66670;DHT22;53568;52.164;4.472;2023-05-07T02:36:56;17.38;75.70
66670;DHT22;53568;52.164;4.472;2023-05-07T02:39:22;17.41;75.76
66670;DHT22;53568;52.164;4.472;2023-05-07T02:41:47;17.44;75.62
66670;DHT22;53568;52.164;4.472;2023-05-07T02:44:13;17.43;75.58
66670;DHT22;53568;52.164;4.472;2023-05-07T02:46:38;17.43;75.63
66670;DHT22;53568;52.164;4.472;2023-05-07T02:49:04;17.38;75.74
66670;DHT22;53568;52.164;4.472;2023-05-07T02:51:30;17.41;75.79
66670;DHT22;53568;52.164;4.472;2023-05-07T02:53:56;17.40;75.84
66670;DHT22;53568;52.164;4.472;2023-05-07T02:56:21;17.36;75.89
66670;DHT22;53568;52.164;4.472;2023-05-07T02:58:47;17.34;76.01
66670;DHT22;53568;52.164;4.472;2023-05-07T03:01:12;17.33;76.10
66670;DHT22;53568;52.164;4.472;2023-05-07T03:03:39;17.34;76.19
66670;DHT22;53568;52.164;4.472;2023-05-07T03:06:06;17.34;76.08
66670;DHT22;53568;52.164;4.472;2023-05-07T03:08:32;17.34;76.12
66670;DHT22;53568;52.164;4.472;2023-05-07T03:10:58;17.36;76.17
66670;DHT22;53568;52.164;4.472;2023-05-07T03:13:24;17.33;76.17
66670;DHT22;53568;52.164;4.472;2023-05-07T03:15:49;17.33;76.10
66670;DHT22;53568;52.164;4.472;2023-05-07T03:18:14;17.30;76.27
66670;DHT22;53568;52.164;4.472;2023-05-07T03:20:40;17.34;76.23
66670;DHT22;53568;52.164;4.472;2023-05-07T03:23:05;17.40;75.95
66670;DHT22;53568;52.164;4.472;2023-05-07T03:25:31;17.38;75.92
66670;DHT22;53568;52.164;4.472;2023-05-07T03:27:57;17.34;75.98
66670;DHT22;53568;52.164;4.472;2023-05-07T03:30:23;17.31;76.10
66670;DHT22;53568;52.164;4.472;2023-05-07T03:32:49;17.34;76.27
66670;DHT22;53568;52.164;4.472;2023-05-07T03:35:14;17.37;75.99
66670;DHT22;53568;52.164;4.472;2023-05-07T03:37:40;17.38;75.90
66670;DHT22;53568;52.164;4.472;2023-05-07T03:40:06;17.34;75.88
66670;DHT22;53568;52.164;4.472;2023-05-07T03:42:33;17.31;76.08
66670;DHT22;53568;52.164;4.472;2023-05-07T03:44:58;17.34;76.05
66670;DHT22;53568;52.164;4.472;2023-05-07T03:47:24;17.34;75.71
66670;DHT22;53568;52.164;4.472;2023-05-07T03:49:49;17.34;75.89
66670;DHT22;53568;52.164;4.472;2023-05-07T03:52:15;17.34;76.04
66670;DHT22;53568;52.164;4.472;2023-05-07T03:54:41;17.33;76.19
66670;DHT22;53568;52.164;4.472;2023-05-07T03:57:06;17.36;75.95
66670;DHT22;53568;52.164;4.472;2023-05-07T03:59:32;17.34;75.94
66670;DHT22;53568;52.164;4.472;2023-05-07T04:01:58;17.34;75.75
66670;DHT22;53568;52.164;4.472;2023-05-07T04:04:23;17.34;76.00
66670;DHT22;53568;52.164;4.472;2023-05-07T04:06:49;17.31;75.96
66670;DHT22;53568;52.164;4.472;2023-05-07T04:09:14;17.30;76.14
66670;DHT22;53568;52.164;4.472;2023-05-07T04:11:40;17.33;76.09
66670;DHT22;53568;52.164;4.472;2023-05-07T04:14:06;17.33;76.04
66670;DHT22;53568;52.164;4.472;2023-05-07T04:16:31;17.28;76.02
66670;DHT22;53568;52.164;4.472;2023-05-07T04:18:57;17.30;76.13
66670;DHT22;53568;52.164;4.472;2023-05-07T04:21:23;17.28;76.16
66670;DHT22;53568;52.164;4.472;2023-05-07T04:23:49;17.26;76.26
66670;DHT22;53568;52.164;4.472;2023-05-07T04:26:15;17.23;76.28
66670;DHT22;53568;52.164;4.472;2023-05-07T04:28:41;17.20;76.54
66670;DHT22;53568;52.164;4.472;2023-05-07T04:31:08;17.14;76.55
66670;DHT22;53568;52.164;4.472;2023-05-07T04:33:34;17.12;76.85
66670;DHT22;53568;52.164;4.472;2023-05-07T04:36:03;17.09;77.00
66670;DHT22;53568;52.164;4.472;2023-05-07T04:38:30;17.04;77.22
66670;DHT22;53568;52.164;4.472;2023-05-07T04:40:58;17.02;77.34
66670;DHT22;53568;52.164;4.472;2023-05-07T04:43:23;17.03;77.34
66670;DHT22;53568;52.164;4.472;2023-05-07T04:45:50;17.00;77.41
66670;DHT22;53568;52.164;4.472;2023-05-07T04:48:16;17.03;77.48
66670;DHT22;53568;52.164;4.472;2023-05-07T04:50:46;17.06;77.56
66670;DHT22;53568;52.164;4.472;2023-05-07T04:53:12;17.10;77.31
66670;DHT22;53568;52.164;4.472;2023-05-07T04:55:37;17.17;77.00
66670;DHT22;53568;52.164;4.472;2023-05-07T04:58:03;17.17;76.96
66670;DHT22;53568;52.164;4.472;2023-05-07T05:00:30;17.22;76.73
66670;DHT22;53568;52.164;4.472;2023-05-07T05:02:55;17.20;76.72
66670;DHT22;53568;52.164;4.472;2023-05-07T05:05:21;17.23;76.63
66670;DHT22;53568;52.164;4.472;2023-05-07T05:07:46;17.26;76.69
66670;DHT22;53568;52.164;4.472;2023-05-07T05:10:12;17.28;76.64
66670;DHT22;53568;52.164;4.472;2023-05-07T05:12:38;17.31;76.47
66670;DHT22;53568;52.164;4.472;2023-05-07T05:15:04;17.37;76.18
66670;DHT22;53568;52.164;4.472;2023-05-07T05:17:30;17.40;76.06
66670;DHT22;53568;52.164;4.472;2023-05-07T05:19:56;17.40;75.89
66670;DHT22;53568;52.164;4.472;2023-05-07T05:22:21;17.46;75.73
66670;DHT22;53568;52.164;4.472;2023-05-07T05:24:47;17.41;75.64
66670;DHT22;53568;52.164;4.472;2023-05-07T05:27:12;17.44;75.54
66670;DHT22;53568;52.164;4.472;2023-05-07T05:29:38;17.44;75.50
66670;DHT22;53568;52.164;4.472;2023-05-07T05:32:03;17.38;75.73
66670;DHT22;53568;52.164;4.472;2023-05-07T05:34:29;17.38;75.66
66670;DHT22;53568;52.164;4.472;2023-05-07T05:36:55;17.36;75.87
66670;DHT22;53568;52.164;4.472;2023-05-07T05:39:20;17.37;75.97
66670;DHT22;53568;52.164;4.472;2023-05-07T05:41:48;17.43;75.87
66670;DHT22;53568;52.164;4.472;2023-05-07T05:44:14;17.53;75.79
66670;DHT22;53568;52.164;4.472;2023-05-07T05:46:39;17.55;75.54
66670;DHT22;53568;52.164;4.472;2023-05-07T05:49:05;17.63;75.22
66670;DHT22;53568;52.164;4.472;2023-05-07T05:51:30;17.64;75.22
66670;DHT22;53568;52.164;4.472;2023-05-07T05:53:56;17.64;75.14
66670;DHT22;53568;52.164;4.472;2023-05-07T05:56:22;17.68;75.25
66670;DHT22;53568;52.164;4.472;2023-05-07T05:58:47;17.71;75.09
66670;DHT22;53568;52.164;4.472;2023-05-07T06:01:13;17.70;75.15
66670;DHT22;53568;52.164;4.472;2023-05-07T06:03:38;17.71;74.93
66670;DHT22;53568;52.164;4.472;2023-05-07T06:06:04;17.60;75.05
66670;DHT22;53568;52.164;4.472;2023-05-07T06:08:29;17.66;75.17
66670;DHT22;53568;52.164;4.472;2023-05-07T06:10:55;17.71;75.16
66670;DHT22;53568;52.164;4.472;2023-05-07T06:13:22;17.78;75.09
66670;DHT22;53568;52.164;4.472;2023-05-07T06:15:48;17.84;74.81
66670;DHT22;53568;52.164;4.472;2023-05-07T06:18:14;17.90;74.73
66670;DHT22;53568;52.164;4.472;2023-05-07T06:20:39;17.91;74.90
66670;DHT22;53568;52.164;4.472;2023-05-07T06:23:05;17.92;74.80
66670;DHT22;53568;52.164;4.472;2023-05-07T06:25:30;17.97;74.86
66670;DHT22;53568;52.164;4.472;2023-05-07T06:27:56;18.02;74.78
66670;DHT22;53568;52.164;4.472;2023-05-07T06:30:22;18.04;74.63
66670;DHT22;53568;52.164;4.472;2023-05-07T06:32:47;18.11;74.50
66670;DHT22;53568;52.164;4.472;2023-05-07T06:35:13;18.00;74.87
66670;DHT22;53568;52.164;4.472;2023-05-07T06:37:38;18.09;74.51
66670;DHT22;53568;52.164;4.472;2023-05-07T06:40:08;18.28;74.20
66670;DHT22;53568;52.164;4.472;2023-05-07T06:42:35;18.31;74.24
66670;DHT22;53568;52.164;4.472;2023-05-07T06:45:00;18.43;74.33
66670;DHT22;53568;52.164;4.472;2023-05-07T06:47:26;18.51;74.26
66670;DHT22;53568;52.164;4.472;2023-05-07T06:49:51;18.53;73.79
66670;DHT22;53568;52.164;4.472;2023-05-07T06:52:17;18.48;74.00
66670;DHT22;53568;52.164;4.472;2023-05-07T06:54:42;18.42;74.16
66670;DHT22;53568;52.164;4.472;2023-05-07T06:57:08;18.43;74.20
66670;DHT22;53568;52.164;4.472;2023-05-07T06:59:34;18.32;74.37
66670;DHT22;53568;52.164;4.472;2023-05-07T07:01:59;18.43;74.11
66670;DHT22;53568;52.164;4.472;2023-05-07T07:04:25;18.46;74.10
66670;DHT22;53568;52.164;4.472;2023-05-07T07:06:54;18.45;74.12
66670;DHT22;53568;52.164;4.472;2023-05-07T07:09:19;18.55;73.95
66670;DHT22;53568;52.164;4.472;2023-05-07T07:11:45;18.41;74.65
66670;DHT22;53568;52.164;4.472;2023-05-07T07:14:10;18.60;74.34
66670;DHT22;53568;52.164;4.472;2023-05-07T07:16:36;18.67;74.25
66670;DHT22;53568;52.164;4.472;2023-05-07T07:19:01;18.65;74.37
66670;DHT22;53568;52.164;4.472;2023-05-07T07:21:27;18.72;74.62
66670;DHT22;53568;52.164;4.472;2023-05-07T07:23:52;18.72;74.68
66670;DHT22;53568;52.164;4.472;2023-05-07T07:26:18;18.83;74.21
66670;DHT22;53568;52.164;4.472;2023-05-07T07:28:44;18.97;73.87
66670;DHT22;53568;52.164;4.472;2023-05-07T07:31:10;19.11;73.08
66670;DHT22;53568;52.164;4.472;2023-05-07T07:33:36;19.27;72.47
66670;DHT22;53568;52.164;4.472;2023-05-07T07:36:02;19.33;71.88
66670;DHT22;53568;52.164;4.472;2023-05-07T07:38:27;19.38;71.38
66670;DHT22;53568;52.164;4.472;2023-05-07T07:40:53;19.33;71.56
66670;DHT22;53568;52.164;4.472;2023-05-07T07:43:18;19.34;71.71
66670;DHT22;53568;52.164;4.472;2023-05-07T07:45:44;19.37;71.52
66670;DHT22;53568;52.164;4.472;2023-05-07T07:48:11;19.49;71.58
66670;DHT22;53568;52.164;4.472;2023-05-07T07:50:36;19.58;70.87
66670;DHT22;53568;52.164;4.472;2023-05-07T07:53:02;19.68;70.68
66670;DHT22;53568;52.164;4.472;2023-05-07T07:55:28;19.67;70.26
66670;DHT22;53568;52.164;4.472;2023-05-07T07:57:53;19.75;70.36
66670;DHT22;53568;52.164;4.472;2023-05-07T08:00:19;19.92;70.40
66670;DHT22;53568;52.164;4.472;2023-05-07T08:02:45;20.02;69.82
66670;DHT22;53568;52.164;4.472;2023-05-07T08:05:10;20.01;69.92
66670;DHT22;53568;52.164;4.472;2023-05-07T08:07:36;19.98;70.28
66670;DHT22;53568;52.164;4.472;2023-05-07T08:10:02;20.17;69.65
66670;DHT22;53568;52.164;4.472;2023-05-07T08:12:27;20.26;69.22
66670;DHT22;53568;52.164;4.472;2023-05-07T08:14:53;20.42;68.42
66670;DHT22;53568;52.164;4.472;2023-05-07T08:17:18;20.48;67.12
66670;DHT22;53568;52.164;4.472;2023-05-07T08:23:06;20.61;67.66
66670;DHT22;53568;52.164;4.472;2023-05-07T08:25:33;20.57;68.18
66670;DHT22;53568;52.164;4.472;2023-05-07T08:27:59;20.38;68.73
66670;DHT22;53568;52.164;4.472;2023-05-07T08:30:25;20.59;68.09
66670;DHT22;53568;52.164;4.472;2023-05-07T08:32:50;20.55;69.12
66670;DHT22;53568;52.164;4.472;2023-05-07T08:35:16;20.62;68.82
66670;DHT22;53568;52.164;4.472;2023-05-07T08:37:41;20.69;67.86
66670;DHT22;53568;52.164;4.472;2023-05-07T08:40:07;20.76;68.09
66670;DHT22;53568;52.164;4.472;2023-05-07T08:42:35;20.96;67.56
66670;DHT22;53568;52.164;4.472;2023-05-07T08:45:04;20.97;67.38
66670;DHT22;53568;52.164;4.472;2023-05-07T08:47:40;21.00;66.79
66670;DHT22;53568;52.164;4.472;2023-05-07T08:50:07;21.00;65.84
66670;DHT22;53568;52.164;4.472;2023-05-07T08:52:33;20.80;67.66
66670;DHT22;53568;52.164;4.472;2023-05-07T08:55:00;20.93;67.34
66670;DHT22;53568;52.164;4.472;2023-05-07T08:57:26;20.96;67.06
66670;DHT22;53568;52.164;4.472;2023-05-07T08:59:52;20.96;66.54
66670;DHT22;53568;52.164;4.472;2023-05-07T09:02:17;20.99;65.96
66670;DHT22;53568;52.164;4.472;2023-05-07T09:04:43;20.95;65.64
66670;DHT22;53568;52.164;4.472;2023-05-07T09:07:09;21.00;66.02
66670;DHT22;53568;52.164;4.472;2023-05-07T09:09:34;21.04;65.56
66670;DHT22;53568;52.164;4.472;2023-05-07T09:12:00;21.03;65.28
66670;DHT22;53568;52.164;4.472;2023-05-07T09:14:25;21.00;66.32
66670;DHT22;53568;52.164;4.472;2023-05-07T09:16:54;21.08;66.26
66670;DHT22;53568;52.164;4.472;2023-05-07T09:19:24;21.04;65.71
66670;DHT22;53568;52.164;4.472;2023-05-07T09:21:50;21.06;65.37
66670;DHT22;53568;52.164;4.472;2023-05-07T09:24:15;21.19;64.92
66670;DHT22;53568;52.164;4.472;2023-05-07T09:26:41;21.16;65.01
66670;DHT22;53568;52.164;4.472;2023-05-07T09:29:10;21.22;65.07
66670;DHT22;53568;52.164;4.472;2023-05-07T09:31:39;21.19;65.60
66670;DHT22;53568;52.164;4.472;2023-05-07T09:34:05;21.33;65.49
66670;DHT22;53568;52.164;4.472;2023-05-07T09:36:31;21.39;65.13
66670;DHT22;53568;52.164;4.472;2023-05-07T09:38:59;21.55;64.89
66670;DHT22;53568;52.164;4.472;2023-05-07T09:41:26;21.74;64.17
66670;DHT22;53568;52.164;4.472;2023-05-07T09:43:55;21.58;64.58
66670;DHT22;53568;52.164;4.472;2023-05-07T09:46:28;21.62;64.10
66670;DHT22;53568;52.164;4.472;2023-05-07T09:48:57;21.65;63.33
66670;DHT22;53568;52.164;4.472;2023-05-07T09:53:52;21.57;63.86
66670;DHT22;53568;52.164;4.472;2023-05-07T09:56:18;21.64;63.83
66670;DHT22;53568;52.164;4.472;2023-05-07T09:58:46;21.73;63.18
66670;DHT22;53568;52.164;4.472;2023-05-07T10:01:12;21.73;63.17
66670;DHT22;53568;52.164;4.472;2023-05-07T10:03:41;21.70;62.67
66670;DHT22;53568;52.164;4.472;2023-05-07T10:06:10;21.84;62.26
66670;DHT22;53568;52.164;4.472;2023-05-07T10:08:37;21.82;62.25
66670;DHT22;53568;52.164;4.472;2023-05-07T10:11:05;21.94;63.11
66670;DHT22;53568;52.164;4.472;2023-05-07T10:13:33;22.02;63.36
66670;DHT22;53568;52.164;4.472;2023-05-07T10:16:04;22.05;63.90
66670;DHT22;53568;52.164;4.472;2023-05-07T10:18:31;22.11;63.75
66670;DHT22;53568;52.164;4.472;2023-05-07T10:21:17;22.12;64.09
66670;DHT22;53568;52.164;4.472;2023-05-07T10:23:50;22.06;63.70
66670;DHT22;53568;52.164;4.472;2023-05-07T10:26:22;22.14;63.41
66670;DHT22;53568;52.164;4.472;2023-05-07T10:28:54;22.18;63.03
66670;DHT22;53568;52.164;4.472;2023-05-07T10:34:01;22.11;64.03
66670;DHT22;53568;52.164;4.472;2023-05-07T10:36:32;22.14;63.15
66670;DHT22;53568;52.164;4.472;2023-05-07T10:38:59;22.14;63.26
66670;DHT22;53568;52.164;4.472;2023-05-07T10:41:25;22.24;63.74
66670;DHT22;53568;52.164;4.472;2023-05-07T10:43:51;22.36;63.49
66670;DHT22;53568;52.164;4.472;2023-05-07T10:46:19;22.44;63.60
66670;DHT22;53568;52.164;4.472;2023-05-07T10:51:30;22.55;63.10
66670;DHT22;53568;52.164;4.472;2023-05-07T10:56:38;22.35;63.06
66670;DHT22;53568;52.164;4.472;2023-05-07T11:02:00;22.46;62.27
66670;DHT22;53568;52.164;4.472;2023-05-07T11:04:31;22.53;61.94
66670;DHT22;53568;52.164;4.472;2023-05-07T11:15:07;22.72;61.72
66670;DHT22;53568;52.164;4.472;2023-05-07T11:17:34;22.85;61.18
66670;DHT22;53568;52.164;4.472;2023-05-07T11:20:02;23.02;60.46
66670;DHT22;53568;52.164;4.472;2023-05-07T11:25:00;23.03;59.54
66670;DHT22;53568;52.164;4.472;2023-05-07T11:27:26;22.76;60.71
66670;DHT22;53568;52.164;4.472;2023-05-07T11:29:52;22.89;61.07
66670;DHT22;53568;52.164;4.472;2023-05-07T11:32:24;22.79;61.22
66670;DHT22;53568;52.164;4.472;2023-05-07T11:34:54;22.73;61.48
66670;DHT22;53568;52.164;4.472;2023-05-07T11:37:21;22.69;61.64
66670;DHT22;53568;52.164;4.472;2023-05-07T11:39:47;22.80;61.07
66670;DHT22;53568;52.164;4.472;2023-05-07T11:44:54;22.80;60.23
66670;DHT22;53568;52.164;4.472;2023-05-07T11:47:21;22.83;60.61
66670;DHT22;53568;52.164;4.472;2023-05-07T11:49:48;22.86;59.76
66670;DHT22;53568;52.164;4.472;2023-05-07T11:52:15;22.72;60.05
66670;DHT22;53568;52.164;4.472;2023-05-07T11:54:41;22.55;59.88
66670;DHT22;53568;52.164;4.472;2023-05-07T11:57:06;22.24;60.63
66670;DHT22;53568;52.164;4.472;2023-05-07T11:59:42;21.55;62.81
66670;DHT22;53568;52.164;4.472;2023-05-07T12:02:16;21.23;64.07
66670;DHT22;53568;52.164;4.472;2023-05-07T12:04:42;21.04;64.92
66670;DHT22;53568;52.164;4.472;2023-05-07T12:07:15;20.97;65.33
66670;DHT22;53568;52.164;4.472;2023-05-07T12:09:41;20.97;65.37
66670;DHT22;53568;52.164;4.472;2023-05-07T12:12:07;20.87;65.76
66670;DHT22;53568;52.164;4.472;2023-05-07T12:14:38;20.77;66.65
66670;DHT22;53568;52.164;4.472;2023-05-07T12:17:05;20.72;67.50
66670;DHT22;53568;52.164;4.472;2023-05-07T12:19:31;20.73;68.79
66670;DHT22;53568;52.164;4.472;2023-05-07T12:21:58;20.61;69.90
66670;DHT22;53568;52.164;4.472;2023-05-07T12:24:24;20.51;70.52
66670;DHT22;53568;52.164;4.472;2023-05-07T12:26:50;20.51;70.57
66670;DHT22;53568;52.164;4.472;2023-05-07T12:29:16;20.31;72.14
66670;DHT22;53568;52.164;4.472;2023-05-07T12:31:42;19.95;73.28
66670;DHT22;53568;52.164;4.472;2023-05-07T12:34:10;19.73;74.17
66670;DHT22;53568;52.164;4.472;2023-05-07T12:36:38;19.63;75.02
66670;DHT22;53568;52.164;4.472;2023-05-07T12:39:05;19.54;74.72
66670;DHT22;53568;52.164;4.472;2023-05-07T12:41:36;19.13;76.65
66670;DHT22;53568;52.164;4.472;2023-05-07T12:44:04;19.09;77.17
66670;DHT22;53568;52.164;4.472;2023-05-07T12:46:30;19.13;77.22
66670;DHT22;53568;52.164;4.472;2023-05-07T12:48:56;19.21;76.37
66670;DHT22;53568;52.164;4.472;2023-05-07T12:51:22;19.16;77.31
66670;DHT22;53568;52.164;4.472;2023-05-07T12:53:47;19.26;78.10
66670;DHT22;53568;52.164;4.472;2023-05-07T12:56:15;19.46;77.05
66670;DHT22;53568;52.164;4.472;2023-05-07T12:58:41;19.51;77.80
66670;DHT22;53568;52.164;4.472;2023-05-07T13:01:07;19.61;77.04
66670;DHT22;53568;52.164;4.472;2023-05-07T13:03:36;19.79;76.24
66670;DHT22;53568;52.164;4.472;2023-05-07T13:06:21;19.89;75.30
66670;DHT22;53568;52.164;4.472;2023-05-07T13:12:19;20.14;74.48
66670;DHT22;53568;52.164;4.472;2023-05-07T13:21:56;20.41;72.63
66670;DHT22;53568;52.164;4.472;2023-05-07T13:24:21;20.55;72.06
66670;DHT22;53568;52.164;4.472;2023-05-07T13:26:47;20.56;72.24
66670;DHT22;53568;52.164;4.472;2023-05-07T13:32:34;20.43;72.80
66670;DHT22;53568;52.164;4.472;2023-05-07T13:35:00;20.48;72.89
66670;DHT22;53568;52.164;4.472;2023-05-07T13:37:26;20.57;72.60
66670;DHT22;53568;52.164;4.472;2023-05-07T13:39:52;20.68;72.24
66670;DHT22;53568;52.164;4.472;2023-05-07T13:42:17;20.79;71.67
66670;DHT22;53568;52.164;4.472;2023-05-07T13:44:43;20.86;71.20
66670;DHT22;53568;52.164;4.472;2023-05-07T13:47:10;20.95;70.50
66670;DHT22;53568;52.164;4.472;2023-05-07T13:49:36;20.69;71.56
66670;DHT22;53568;52.164;4.472;2023-05-07T13:52:02;20.61;71.19
66670;DHT22;53568;52.164;4.472;2023-05-07T13:54:47;20.43;72.47
66670;DHT22;53568;52.164;4.472;2023-05-07T14:00:41;20.26;72.98
66670;DHT22;53568;52.164;4.472;2023-05-07T14:03:07;20.15;73.33
66670;DHT22;53568;52.164;4.472;2023-05-07T14:05:32;19.92;73.30
66670;DHT22;53568;52.164;4.472;2023-05-07T14:07:58;19.47;73.47
66670;DHT22;53568;52.164;4.472;2023-05-07T14:10:24;19.43;73.65
66670;DHT22;53568;52.164;4.472;2023-05-07T14:12:50;19.28;74.93
66670;DHT22;53568;52.164;4.472;2023-05-07T14:15:16;19.28;74.52
66670;DHT22;53568;52.164;4.472;2023-05-07T14:17:44;19.33;74.31
66670;DHT22;53568;52.164;4.472;2023-05-07T14:20:19;19.38;74.01
66670;DHT22;53568;52.164;4.472;2023-05-07T14:22:44;19.33;74.53
66670;DHT22;53568;52.164;4.472;2023-05-07T14:25:10;19.41;74.60
66670;DHT22;53568;52.164;4.472;2023-05-07T14:27:35;19.33;73.86
66670;DHT22;53568;52.164;4.472;2023-05-07T14:30:01;19.31;74.29
66670;DHT22;53568;52.164;4.472;2023-05-07T14:32:27;19.19;73.53
66670;DHT22;53568;52.164;4.472;2023-05-07T14:34:52;19.07;73.67
66670;DHT22;53568;52.164;4.472;2023-05-07T14:37:18;19.06;73.95
66670;DHT22;53568;52.164;4.472;2023-05-07T14:39:45;18.99;73.93
66670;DHT22;53568;52.164;4.472;2023-05-07T14:42:10;18.76;73.48
66670;DHT22;53568;52.164;4.472;2023-05-07T14:44:36;18.80;73.22
66670;DHT22;53568;52.164;4.472;2023-05-07T14:47:02;18.70;73.71
66670;DHT22;53568;52.164;4.472;2023-05-07T14:49:28;18.70;73.50
66670;DHT22;53568;52.164;4.472;2023-05-07T14:51:57;18.82;73.56
66670;DHT22;53568;52.164;4.472;2023-05-07T14:54:23;18.70;74.18
66670;DHT22;53568;52.164;4.472;2023-05-07T14:56:48;18.75;73.99
66670;DHT22;53568;52.164;4.472;2023-05-07T14:59:14;18.70;73.93
66670;DHT22;53568;52.164;4.472;2023-05-07T15:01:42;18.59;74.57
66670;DHT22;53568;52.164;4.472;2023-05-07T15:04:10;18.69;74.24
66670;DHT22;53568;52.164;4.472;2023-05-07T15:06:36;18.86;73.60
66670;DHT22;53568;52.164;4.472;2023-05-07T15:09:02;18.97;73.55
66670;DHT22;53568;52.164;4.472;2023-05-07T15:11:28;19.06;72.58
66670;DHT22;53568;52.164;4.472;2023-05-07T15:13:54;19.11;72.42
66670;DHT22;53568;52.164;4.472;2023-05-07T15:19:41;19.19;72.36
66670;DHT22;53568;52.164;4.472;2023-05-07T15:22:07;19.11;73.27
66670;DHT22;53568;52.164;4.472;2023-05-07T15:24:32;19.27;72.06
66670;DHT22;53568;52.164;4.472;2023-05-07T15:26:58;19.30;72.16
66670;DHT22;53568;52.164;4.472;2023-05-07T15:29:24;19.23;72.11
66670;DHT22;53568;52.164;4.472;2023-05-07T15:31:50;19.23;71.92
66670;DHT22;53568;52.164;4.472;2023-05-07T15:34:17;19.19;72.39
66670;DHT22;53568;52.164;4.472;2023-05-07T15:36:42;19.13;72.74
66670;DHT22;53568;52.164;4.472;2023-05-07T15:39:08;19.19;72.48
66670;DHT22;53568;52.164;4.472;2023-05-07T15:41:33;18.97;73.33
66670;DHT22;53568;52.164;4.472;2023-05-07T15:43:59;19.02;72.96
66670;DHT22;53568;52.164;4.472;2023-05-07T15:46:25;18.95;73.44
66670;DHT22;53568;52.164;4.472;2023-05-07T15:48:52;18.95;73.57
66670;DHT22;53568;52.164;4.472;2023-05-07T15:51:18;18.87;74.02
66670;DHT22;53568;52.164;4.472;2023-05-07T15:53:44;19.00;74.23
66670;DHT22;53568;52.164;4.472;2023-05-07T15:56:10;19.02;73.60
66670;DHT22;53568;52.164;4.472;2023-05-07T16:02:32;18.99;74.29
66670;DHT22;53568;52.164;4.472;2023-05-07T16:08:25;19.07;73.87
66670;DHT22;53568;52.164;4.472;2023-05-07T16:10:51;19.14;73.88
66670;DHT22;53568;52.164;4.472;2023-05-07T16:13:17;19.19;72.74
66670;DHT22;53568;52.164;4.472;2023-05-07T16:15:46;19.17;72.49
66670;DHT22;53568;52.164;4.472;2023-05-07T16:18:14;19.16;72.52
66670;DHT22;53568;52.164;4.472;2023-05-07T16:20:42;19.24;72.22
66670;DHT22;53568;52.164;4.472;2023-05-07T16:23:08;19.27;71.74